Time;durP1;ratioP1;P1;durP2;ratioP2;P2;SDS_P1;SDS_P2;PMS_P1;PMS_P2;Temp;Humidity;BMP_temperature;BMP_pressure;BME280_temperature;BME280_humidity;BME280_pressure;Samples;Min_cycle;Max_cycle;Signal;HPM_P1;HPM_P2
2021/03/17 00:00:17;;;;;;;5.60;2.43;;;;;;;4.15;94.51;96580.59;5043502;28;20492;-93
2021/03/17 00:02:43;;;;;;;2.30;1.90;;;;;;;4.17;94.63;96589.56;5042000;28;20473;-91
2021/03/17 00:05:12;;;;;;;3.17;2.63;;;;;;;4.19;94.48;96587.16;5040334;28;20471;-90
2021/03/17 00:07:38;;;;;;;4.23;2.73;;;;;;;4.15;94.66;96586.69;5039811;28;20542;-91
2021/03/17 00:10:05;;;;;;;3.77;2.63;;;;;;;4.29;94.09;96579.59;5040253;28;20543;-91
2021/03/17 00:12:31;;;;;;;3.00;2.17;;;;;;;4.32;93.57;96581.97;5039888;28;20420;-90
2021/03/17 00:14:58;;;;;;;3.67;2.77;;;;;;;4.29;94.13;96579.59;5040010;28;20454;-90
2021/03/17 00:17:24;;;;;;;3.70;3.10;;;;;;;4.25;93.74;96581.78;5039358;28;20449;-89
2021/03/17 00:19:50;;;;;;;2.80;2.40;;;;;;;4.20;93.79;96579.84;5039333;28;20475;-90
2021/03/17 00:22:17;;;;;;;5.00;3.37;;;;;;;4.26;94.01;96586.63;5038862;28;20796;-89
2021/03/17 00:24:43;;;;;;;3.30;2.53;;;;;;;4.19;94.33;96573.81;5039659;28;20829;-92
2021/03/17 00:27:09;;;;;;;5.50;2.90;;;;;;;4.18;94.26;96579.63;5041287;28;20440;-91
2021/03/17 00:29:35;;;;;;;3.43;2.90;;;;;;;4.24;94.09;96570.38;5040835;28;20538;-91
2021/03/17 00:32:01;;;;;;;6.00;2.77;;;;;;;4.25;94.06;96574.50;5048605;28;20449;-89
2021/03/17 00:34:28;;;;;;;4.13;2.53;;;;;;;4.24;93.71;96567.72;5040906;28;20571;-89
2021/03/17 00:36:54;;;;;;;4.67;3.20;;;;;;;4.29;93.70;96563.56;5039184;28;20530;-90
2021/03/17 00:39:21;;;;;;;3.73;3.07;;;;;;;4.33;93.76;96562.06;5039380;28;20447;-88
2021/03/17 00:41:47;;;;;;;3.87;2.70;;;;;;;4.36;93.50;96563.03;5039526;28;20446;-82
2021/03/17 00:44:13;;;;;;;6.00;2.90;;;;;;;4.33;93.40;96558.69;5043631;28;20529;-82
2021/03/17 00:46:39;;;;;;;3.20;2.70;;;;;;;4.30;93.49;96557.72;5042936;28;20627;-82
2021/03/17 00:49:05;;;;;;;3.47;2.93;;;;;;;4.24;93.87;96549.00;5042406;28;20515;-82
2021/03/17 00:51:31;;;;;;;5.53;3.80;;;;;;;4.24;93.70;96546.34;5042465;28;20447;-82
2021/03/17 00:53:57;;;;;;;7.33;3.17;;;;;;;4.11;94.36;96548.81;5042304;28;20605;-82
2021/03/17 00:56:24;;;;;;;4.67;3.10;;;;;;;4.13;94.28;96545.66;5040506;28;21002;-84
2021/03/17 00:58:50;;;;;;;5.50;3.40;;;;;;;4.17;94.00;96540.78;5057253;28;20431;-83
2021/03/17 01:01:16;;;;;;;4.90;3.47;;;;;;;4.18;94.02;96534.97;5059481;28;20490;-83
2021/03/17 01:03:42;;;;;;;3.30;2.93;;;;;;;4.17;93.67;96538.84;5059375;28;20450;-82
2021/03/17 01:06:09;;;;;;;4.40;3.47;;;;;;;4.06;94.14;96530.16;5057596;28;20448;-83
2021/03/17 01:08:35;;;;;;;9.83;4.27;;;;;;;4.07;94.87;96529.66;5038572;28;20435;-83
2021/03/17 01:11:02;;;;;;;4.83;3.43;;;;;;;4.08;94.88;96527.72;5037438;28;20447;-84
2021/03/17 01:13:29;;;;;;;4.90;3.50;;;;;;;4.14;94.39;96526.47;5036693;28;20538;-83
2021/03/17 01:15:55;;;;;;;4.30;3.57;;;;;;;4.13;94.57;96530.38;5037699;28;20867;-83
2021/03/17 01:18:21;;;;;;;5.57;4.10;;;;;;;4.09;94.50;96523.84;5037688;28;20542;-83
2021/03/17 01:20:47;;;;;;;6.07;4.00;;;;;;;4.05;94.79;96523.38;5037760;28;20424;-83
2021/03/17 01:23:14;;;;;;;4.37;3.20;;;;;;;4.07;94.81;96524.31;5037659;28;20962;-83
2021/03/17 01:25:43;;;;;;;4.87;3.80;;;;;;;4.08;94.98;96519.72;5038977;28;20903;-82
2021/03/17 01:28:11;;;;;;;5.43;3.80;;;;;;;4.05;95.29;96529.44;5042070;28;20434;-82
2021/03/17 01:30:40;;;;;;;6.30;4.17;;;;;;;4.12;95.03;96525.53;5041890;28;20836;-83
2021/03/17 01:33:08;;;;;;;4.00;3.50;;;;;;;4.09;95.02;96519.22;5041654;28;20435;-82
2021/03/17 01:35:34;;;;;;;7.30;5.20;;;;;;;4.11;94.96;96518.72;5042547;28;20575;-82
2021/03/17 01:38:01;;;;;;;6.40;4.80;;;;;;;4.04;95.47;96519.97;5041770;28;20550;-83
2021/03/17 01:40:29;;;;;;;8.17;5.23;;;;;;;4.09;95.62;96523.84;5041467;28;20475;-83
2021/03/17 01:42:56;;;;;;;6.83;4.90;;;;;;;3.96;96.29;96516.38;5041511;28;20511;-83
2021/03/17 01:45:23;;;;;;;7.00;5.10;;;;;;;3.99;96.76;96526.06;5041740;28;21007;-82
2021/03/17 01:47:52;;;;;;;9.23;5.30;;;;;;;3.98;96.87;96518.56;5041764;28;20473;-82
2021/03/17 01:50:21;;;;;;;7.77;5.40;;;;;;;4.02;96.78;96517.06;5043042;28;20471;-82
2021/03/17 01:52:47;;;;;;;9.97;6.00;;;;;;;3.98;96.64;96518.56;5041966;28;20556;-82
2021/03/17 01:55:15;;;;;;;8.93;5.67;;;;;;;3.97;96.58;96515.16;5042179;28;20479;-82
2021/03/17 01:57:41;;;;;;;8.03;5.30;;;;;;;3.90;96.96;96513.00;5041968;28;20471;-82
2021/03/17 02:00:10;;;;;;;7.37;5.17;;;;;;;3.94;97.25;96510.81;5041984;28;20508;-82
2021/03/17 02:02:38;;;;;;;9.20;5.80;;;;;;;3.84;97.41;96514.22;5038135;28;20514;-83
2021/03/17 02:05:08;;;;;;;10.03;5.90;;;;;;;3.90;97.34;96506.94;5038685;28;20511;-82
2021/03/17 02:07:34;;;;;;;8.43;5.90;;;;;;;3.82;97.31;96504.06;5038178;28;20471;-83
2021/03/17 02:10:01;;;;;;;9.20;5.70;;;;;;;3.84;97.79;96500.88;5038525;28;20987;-81
2021/03/17 02:12:38;;;;;;;9.37;5.90;;;;;;;3.86;98.02;96501.13;5041559;28;20534;-81
2021/03/17 02:15:12;;;;;;;9.90;6.17;;;;;;;3.85;98.45;96505.75;5043352;28;21164;-81
2021/03/17 02:17:41;;;;;;;7.60;5.23;;;;;;;3.88;97.91;96498.69;5041022;28;20483;-81
2021/03/17 02:20:35;;;;;;;6.03;4.60;;;;;;;3.77;97.90;96497.50;5042184;28;20538;-81
2021/03/17 02:23:11;;;;;;;8.37;5.53;;;;;;;3.76;97.89;96498.00;5037906;28;20441;-83
2021/03/17 02:25:58;;;;;;;8.80;5.13;;;;;;;3.81;98.26;96504.53;5040505;28;20455;-83
2021/03/17 02:28:42;;;;;;;9.73;5.67;;;;;;;3.88;97.84;96502.09;5040918;28;20450;-83
2021/03/17 02:31:34;;;;;;;7.40;4.80;;;;;;;3.74;97.71;96503.84;5045367;28;20455;-83
2021/03/17 02:34:07;;;;;;;6.30;4.47;;;;;;;3.66;97.87;96499.50;5046742;28;20528;-81
2021/03/17 02:36:41;;;;;;;7.20;5.00;;;;;;;3.61;98.29;96498.28;5047026;28;20459;-83
2021/03/17 02:39:12;;;;;;;7.57;5.67;;;;;;;3.64;98.50;96501.91;5046641;28;20463;-82
2021/03/17 02:41:44;;;;;;;6.57;4.63;;;;;;;3.52;98.40;96501.22;5046442;28;20457;-83
2021/03/17 02:44:14;;;;;;;8.23;5.13;;;;;;;3.51;99.27;96505.09;5045920;28;20402;-83
2021/03/17 02:46:42;;;;;;;7.33;5.03;;;;;;;3.43;99.78;96498.81;5046131;28;20475;-83
2021/03/17 02:49:13;;;;;;;6.53;4.40;;;;;;;3.48;99.70;96495.41;5046464;28;20943;-83
2021/03/17 02:51:42;;;;;;;9.40;5.47;;;;;;;3.48;99.69;96500.75;5056938;28;20507;-83
2021/03/17 02:54:11;;;;;;;7.27;4.93;;;;;;;3.55;99.08;96499.53;5061533;28;20478;-82
2021/03/17 02:56:43;;;;;;;12.53;4.80;;;;;;;3.51;98.84;96499.78;5061467;28;20458;-82
2021/03/17 02:59:10;;;;;;;7.53;4.97;;;;;;;3.56;98.90;96500.97;5040787;28;20432;-82
2021/03/17 03:01:38;;;;;;;5.87;4.50;;;;;;;3.49;98.95;96486.22;5041007;28;20923;-82
2021/03/17 03:04:08;;;;;;;9.67;5.20;;;;;;;3.41;98.59;96493.28;5041821;28;20936;-82
2021/03/17 03:06:37;;;;;;;7.70;5.00;;;;;;;3.45;99.03;96493.72;5042022;28;20560;-82
2021/03/17 03:09:05;;;;;;;8.30;4.93;;;;;;;3.46;99.18;96491.78;5043199;28;20505;-82
2021/03/17 03:11:32;;;;;;;6.37;4.50;;;;;;;3.35;99.24;96491.81;5044294;28;20425;-82
2021/03/17 03:13:58;;;;;;;5.80;4.10;;;;;;;3.40;99.49;96494.47;5043625;28;20499;-83
2021/03/17 03:16:25;;;;;;;5.47;3.90;;;;;;;3.37;99.03;96494.72;5043465;28;20510;-83
2021/03/17 03:18:53;;;;;;;6.27;5.07;;;;;;;3.35;99.86;96500.56;5042916;28;20478;-83
2021/03/17 03:21:22;;;;;;;7.30;4.20;;;;;;;3.27;100.00;96504.19;5042084;28;20444;-82
2021/03/17 03:23:49;;;;;;;5.87;4.00;;;;;;;3.23;100.00;96494.50;5044828;28;20438;-83
2021/03/17 03:26:17;;;;;;;7.40;4.93;;;;;;;3.26;100.00;96494.75;5043953;28;20483;-83
2021/03/17 03:28:45;;;;;;;4.77;3.50;;;;;;;3.28;100.00;96492.31;5043709;28;20426;-83
2021/03/17 03:31:13;;;;;;;7.03;5.23;;;;;;;3.36;100.00;96498.59;5043547;28;20489;-81
2021/03/17 03:33:39;;;;;;;7.33;4.90;;;;;;;3.41;100.00;96492.53;5043187;28;20446;-82
2021/03/17 03:36:06;;;;;;;7.17;5.00;;;;;;;3.50;99.67;96497.59;5041062;28;20545;-83
2021/03/17 03:38:32;;;;;;;6.07;4.60;;;;;;;3.38;99.28;96496.91;5039600;28;20522;-83
2021/03/17 03:40:59;;;;;;;6.57;4.60;;;;;;;3.36;99.70;96507.31;5039687;28;20436;-84
2021/03/17 03:43:26;;;;;;;7.43;4.83;;;;;;;3.42;99.52;96501.97;5040199;28;20541;-83
2021/03/17 03:45:53;;;;;;;7.37;5.07;;;;;;;3.37;100.00;96503.44;5043439;28;20444;-81
2021/03/17 03:48:19;;;;;;;6.47;4.70;;;;;;;3.35;100.00;96513.16;5044215;28;20530;-81
2021/03/17 03:50:49;;;;;;;7.80;5.20;;;;;;;3.35;99.75;96508.56;5042354;28;20489;-81
2021/03/17 03:53:34;;;;;;;6.57;5.40;;;;;;;3.39;100.00;96508.28;5042823;28;20432;-81
2021/03/17 03:56:05;;;;;;;8.33;5.03;;;;;;;3.30;100.00;96505.88;5044332;28;20483;-83
2021/03/17 03:58:40;;;;;;;6.00;5.00;;;;;;;3.45;100.00;96506.31;5060696;28;20427;-83
2021/03/17 04:01:09;;;;;;;7.53;5.03;;;;;;;3.40;99.84;96513.13;5060565;28;20407;-83
2021/03/17 04:03:41;;;;;;;9.90;6.90;;;;;;;3.28;99.80;96508.31;5060483;28;20463;-82
2021/03/17 04:06:09;;;;;;;9.73;6.10;;;;;;;3.13;100.00;96511.25;5050998;28;20542;-83
2021/03/17 04:08:38;;;;;;;8.90;6.30;;;;;;;3.10;100.00;96510.25;5041029;28;20451;-82
2021/03/17 04:11:07;;;;;;;7.27;5.73;;;;;;;3.13;100.00;96508.59;5040223;28;20455;-84
2021/03/17 04:13:34;;;;;;;9.60;6.27;;;;;;;3.19;100.00;96502.03;5038970;28;20443;-84
2021/03/17 04:16:00;;;;;;;8.30;6.40;;;;;;;3.27;100.00;96509.50;5038909;28;20473;-84
2021/03/17 04:18:30;;;;;;;7.93;5.93;;;;;;;3.26;100.00;96511.44;5038996;28;20454;-83
2021/03/17 04:21:01;;;;;;;10.00;7.80;;;;;;;3.28;100.00;96516.31;5040871;28;20538;-82
2021/03/17 04:23:28;;;;;;;8.57;6.00;;;;;;;3.30;100.00;96522.59;5042644;28;20485;-83
2021/03/17 04:25:55;;;;;;;10.67;6.80;;;;;;;3.26;100.00;96516.09;5042527;28;20422;-83
2021/03/17 04:28:25;;;;;;;9.67;7.03;;;;;;;3.21;100.00;96520.94;5043354;28;20439;-82
2021/03/17 04:30:55;;;;;;;8.27;6.07;;;;;;;3.17;100.00;96525.03;5043563;28;20447;-83
2021/03/17 04:33:22;;;;;;;10.30;6.93;;;;;;;3.21;100.00;96523.59;5043324;28;20439;-82
2021/03/17 04:35:53;;;;;;;8.20;6.77;;;;;;;3.28;100.00;96524.31;5038818;28;20485;-83
2021/03/17 04:38:21;;;;;;;11.10;6.83;;;;;;;3.33;100.00;96526.22;5040025;28;20901;-81
2021/03/17 04:40:48;;;;;;;10.43;7.77;;;;;;;3.30;100.00;96527.22;5043534;28;20511;-82
2021/03/17 04:43:15;;;;;;;8.70;6.17;;;;;;;3.18;100.00;96531.84;5044622;28;21042;-83
2021/03/17 04:45:42;;;;;;;10.07;6.77;;;;;;;3.07;100.00;96535.22;5044202;28;20904;-83
2021/03/17 04:48:09;;;;;;;10.27;6.43;;;;;;;3.03;100.00;96529.44;5039740;28;20439;-83
2021/03/17 04:50:38;;;;;;;10.13;7.00;;;;;;;3.09;100.00;96530.16;5038483;28;20819;-84
2021/03/17 04:53:04;;;;;;;10.97;7.57;;;;;;;3.26;100.00;96530.13;5040533;28;20871;-83
2021/03/17 04:55:30;;;;;;;12.40;8.10;;;;;;;3.20;100.00;96535.47;5040443;28;20482;-84
2021/03/17 04:57:58;;;;;;;13.40;8.27;;;;;;;3.11;100.00;96527.72;5043240;28;20804;-84
2021/03/17 05:00:26;;;;;;;12.07;8.60;;;;;;;3.04;100.00;96524.78;5045234;28;20522;-84
2021/03/17 05:02:56;;;;;;;11.20;7.77;;;;;;;3.06;100.00;96533.78;5045183;28;20433;-83
2021/03/17 05:05:23;;;;;;;13.50;9.30;;;;;;;3.13;100.00;96546.59;5043524;28;20899;-84
2021/03/17 05:07:51;;;;;;;12.17;9.60;;;;;;;3.16;100.00;96534.97;5044977;28;20540;-84
2021/03/17 05:10:17;;;;;;;13.40;9.07;;;;;;;3.18;100.00;96543.22;5045249;28;20486;-84
2021/03/17 05:12:44;;;;;;;15.50;11.20;;;;;;;3.11;100.00;96545.63;5044270;28;20459;-83
2021/03/17 05:15:11;;;;;;;13.10;9.63;;;;;;;3.02;100.00;96545.88;5043121;28;20574;-83
2021/03/17 05:17:39;;;;;;;16.47;10.23;;;;;;;3.12;100.00;96544.44;5043943;28;20479;-83
2021/03/17 05:20:11;;;;;;;14.97;10.20;;;;;;;3.15;100.00;96541.53;5042755;28;20466;-85
2021/03/17 05:22:39;;;;;;;17.00;11.70;;;;;;;3.12;100.00;96545.16;5040129;28;20420;-84
2021/03/17 05:25:07;;;;;;;13.43;10.37;;;;;;;3.05;100.00;96550.25;5040875;28;20457;-83
2021/03/17 05:27:36;;;;;;;15.23;11.10;;;;;;;2.98;100.00;96548.78;5044399;28;20491;-83
2021/03/17 05:30:06;;;;;;;16.90;12.27;;;;;;;3.03;100.00;96553.41;5043698;28;20528;-83
2021/03/17 05:32:33;;;;;;;17.87;11.87;;;;;;;3.07;100.00;96545.19;5043516;28;20435;-83
2021/03/17 05:35:01;;;;;;;15.87;11.57;;;;;;;3.12;100.00;96545.16;5042841;28;20517;-83
2021/03/17 05:37:29;;;;;;;18.77;12.50;;;;;;;3.16;100.00;96536.94;5043590;28;20979;-83
2021/03/17 05:39:56;;;;;;;18.93;12.23;;;;;;;3.02;100.00;96543.22;5043808;28;20967;-83
2021/03/17 05:42:23;;;;;;;21.40;12.53;;;;;;;2.98;100.00;96540.06;5044512;28;20922;-83
2021/03/17 05:44:50;;;;;;;19.67;12.37;;;;;;;3.15;100.00;96544.19;5043998;28;20511;-83
2021/03/17 05:47:18;;;;;;;17.50;12.00;;;;;;;3.08;100.00;96546.63;5042953;28;20445;-80
2021/03/17 05:49:45;;;;;;;22.27;16.40;;;;;;;3.05;100.00;96556.31;5043246;28;20447;-83
2021/03/17 05:52:14;;;;;;;22.27;15.27;;;;;;;2.92;100.00;96558.72;5042141;28;20435;-83
2021/03/17 05:54:42;;;;;;;18.37;13.13;;;;;;;2.85;100.00;96566.47;5040708;28;20551;-84
2021/03/17 05:57:09;;;;;;;29.67;16.23;;;;;;;2.90;100.00;96569.16;5041631;28;20462;-84
2021/03/17 05:59:36;;;;;;;23.50;14.20;;;;;;;2.79;100.00;96568.41;5042056;28;20534;-85
2021/03/17 06:02:03;;;;;;;26.13;15.13;;;;;;;2.87;100.00;96567.44;5041829;28;20417;-83
2021/03/17 06:04:30;;;;;;;27.83;14.23;;;;;;;2.93;100.00;96570.84;5043014;28;20502;-83
2021/03/17 06:06:57;;;;;;;27.10;16.63;;;;;;;2.95;100.00;96573.75;5043594;28;20508;-84
2021/03/17 06:09:25;;;;;;;29.07;18.00;;;;;;;3.07;100.00;96583.19;5043308;28;20451;-83
2021/03/17 06:11:53;;;;;;;26.40;16.13;;;;;;;3.03;100.00;96579.31;5043474;28;20455;-83
2021/03/17 06:14:20;;;;;;;28.10;16.10;;;;;;;2.95;100.00;96576.41;5043258;28;20515;-84
2021/03/17 06:16:50;;;;;;;27.10;15.30;;;;;;;3.00;100.00;96589.03;5042091;28;20527;-83
2021/03/17 06:19:21;;;;;;;25.47;15.30;;;;;;;3.03;100.00;96580.06;5040022;28;20537;-84
2021/03/17 06:21:47;;;;;;;29.47;16.40;;;;;;;3.10;100.00;96587.56;5040482;28;20428;-83
2021/03/17 06:24:14;;;;;;;31.10;17.87;;;;;;;2.91;100.00;96604.50;5041887;28;20861;-83
2021/03/17 06:26:42;;;;;;;24.27;15.73;;;;;;;3.03;100.00;96598.00;5040698;28;20458;-83
2021/03/17 06:29:09;;;;;;;30.03;18.67;;;;;;;2.88;100.00;96600.84;5040689;28;20452;-84
2021/03/17 06:31:36;;;;;;;30.83;17.13;;;;;;;2.76;100.00;96599.38;5039727;28;20447;-83
2021/03/17 06:34:02;;;;;;;27.27;15.07;;;;;;;2.75;100.00;96600.63;5040107;28;20455;-85
2021/03/17 06:36:28;;;;;;;30.97;16.60;;;;;;;2.64;100.00;96606.63;5038526;28;20520;-85
2021/03/17 06:39:07;;;;;;;29.30;16.03;;;;;;;2.77;100.00;96600.84;5038779;28;20919;-85
2021/03/17 06:41:45;;;;;;;29.90;16.10;;;;;;;2.72;100.00;96600.84;5038756;28;20501;-85
2021/03/17 06:44:20;;;;;;;30.97;16.50;;;;;;;2.80;100.00;96605.22;5039361;28;20542;-88
2021/03/17 06:47:18;;;;;;;27.40;16.60;;;;;;;2.83;100.00;96598.19;5038935;28;20469;-86
2021/03/17 06:49:46;;;;;;;34.93;19.20;;;;;;;2.93;100.00;96605.47;5039440;28;20489;-85
2021/03/17 06:52:30;;;;;;;31.97;17.83;;;;;;;2.93;100.00;96602.81;5039912;28;20566;-86
2021/03/17 06:55:14;;;;;;;35.20;17.57;;;;;;;2.99;100.00;96603.56;5038581;28;20537;-86
2021/03/17 06:57:44;;;;;;;34.27;19.60;;;;;;;2.76;100.00;96612.72;5039257;28;20462;-85
2021/03/17 07:00:30;;;;;;;35.23;20.80;;;;;;;2.84;100.00;96618.31;5040928;28;20950;-92
2021/03/17 07:02:59;;;;;;;37.33;21.60;;;;;;;2.74;100.00;96625.78;5043677;28;20420;-93
2021/03/17 07:08:28;;;;;;;34.70;18.57;;;;;;;2.96;100.00;96627.78;5042355;28;20492;-89
2021/03/17 07:10:57;;;;;;;32.90;19.73;;;;;;;2.88;100.00;96627.50;5049220;28;20408;-90
2021/03/17 07:13:32;;;;;;;36.93;21.17;;;;;;;2.98;100.00;96630.66;5060956;28;20458;-91
2021/03/17 07:15:59;;;;;;;30.50;17.67;;;;;;;3.02;100.00;96639.16;5060639;28;20454;-90
2021/03/17 07:18:28;;;;;;;33.10;19.20;;;;;;;2.98;100.00;96633.34;5060820;28;20458;-90
2021/03/17 07:20:56;;;;;;;29.60;16.70;;;;;;;3.01;100.00;96635.78;5044558;28;20428;-93
2021/03/17 07:23:28;;;;;;;29.60;18.13;;;;;;;3.00;100.00;96641.59;5043670;28;20427;-93
2021/03/17 07:26:14;;;;;;;31.57;17.70;;;;;;;3.00;100.00;96638.94;5044375;28;20481;-92
2021/03/17 07:29:03;;;;;;;30.80;18.17;;;;;;;3.07;100.00;96635.78;5044561;28;20837;-93
2021/03/17 07:31:33;;;;;;;31.40;17.23;;;;;;;3.06;100.00;96637.00;5045203;28;20415;-95
2021/03/17 07:34:22;;;;;;;30.03;17.43;;;;;;;3.26;100.00;96634.09;5043691;28;20518;-89
2021/03/17 07:36:59;;;;;;;29.00;18.37;;;;;;;3.35;100.00;96638.47;5044541;28;20538;-88
2021/03/17 07:39:28;;;;;;;28.10;15.97;;;;;;;3.39;100.00;96642.34;5044426;28;20918;-91
2021/03/17 07:41:56;;;;;;;27.03;16.03;;;;;;;3.41;100.00;96639.22;5042866;28;20407;-89
2021/03/17 07:44:23;;;;;;;32.50;17.13;;;;;;;3.51;100.00;96637.75;5044594;28;20502;-92
2021/03/17 07:46:52;;;;;;;22.50;13.60;;;;;;;3.42;100.00;96643.31;5044438;28;20482;-90
2021/03/17 07:49:20;;;;;;;23.47;14.23;;;;;;;3.66;100.00;96654.25;5044582;28;20402;-91
2021/03/17 07:51:51;;;;;;;34.83;16.10;;;;;;;3.76;100.00;96658.09;5048967;28;20444;-93
2021/03/17 07:54:28;;;;;;;25.97;15.50;;;;;;;3.81;99.59;96648.63;5049438;28;20474;-92
2021/03/17 07:56:56;;;;;;;24.80;14.70;;;;;;;3.73;100.00;96654.47;5044284;28;20586;-89
2021/03/17 07:59:23;;;;;;;25.97;15.77;;;;;;;3.68;100.00;96649.88;5045280;28;20439;-92
2021/03/17 08:01:50;;;;;;;29.80;16.93;;;;;;;3.74;100.00;96658.59;5045279;28;20538;-90
2021/03/17 08:04:16;;;;;;;28.67;16.57;;;;;;;3.78;100.00;96659.09;5047130;28;20459;-92
2021/03/17 08:06:44;;;;;;;26.63;15.87;;;;;;;3.83;100.00;96672.88;5045134;28;20553;-89
2021/03/17 08:09:10;;;;;;;25.40;14.00;;;;;;;3.81;99.09;96653.97;5043010;28;20469;-89
2021/03/17 08:11:37;;;;;;;21.80;9.90;;;;;;;3.77;95.58;96659.56;5043933;28;20486;-91
2021/03/17 08:14:06;;;;;;;9.73;5.80;;;;;;;3.92;91.06;96657.34;5042965;28;20457;-92
2021/03/17 08:16:36;;;;;;;5.50;3.50;;;;;;;4.07;84.34;96655.13;5042646;28;20522;-92
2021/03/17 08:19:18;;;;;;;8.67;4.90;;;;;;;3.90;82.04;96665.13;5044979;28;20499;-90
2021/03/17 08:21:57;;;;;;;8.23;4.77;;;;;;;3.88;85.53;96669.50;5045323;28;20431;-93
2021/03/17 08:24:44;;;;;;;11.90;5.40;;;;;;;4.17;86.19;96656.31;5046922;28;20455;-93
2021/03/17 08:27:22;;;;;;;17.90;6.90;;;;;;;4.40;87.44;96661.59;5047166;28;20521;-92
2021/03/17 08:29:51;;;;;;;9.90;6.87;;;;;;;4.42;85.20;96657.22;5046600;28;20471;-94
2021/03/17 08:32:18;;;;;;;9.03;7.00;;;;;;;4.28;85.48;96652.91;5043683;28;20510;-92
2021/03/17 08:34:56;;;;;;;13.40;8.30;;;;;;;4.54;87.06;96655.97;5045728;28;20569;-89
2021/03/17 08:37:48;;;;;;;13.33;7.40;;;;;;;4.92;86.75;96654.31;5045246;28;20463;-91
2021/03/17 08:40:49;;;;;;;13.10;9.10;;;;;;;5.36;82.93;96662.06;5044422;28;20471;-92
2021/03/17 08:43:46;;;;;;;14.33;8.20;;;;;;;5.36;83.56;96672.78;4963171;29;20508;-90
2021/03/17 08:46:15;;;;;;;19.00;9.47;;;;;;;5.36;82.52;96674.72;5039302;28;20471;-92
2021/03/17 08:49:02;;;;;;;16.90;7.63;;;;;;;5.12;80.42;96671.97;5053228;28;20446;-92
2021/03/17 08:52:02;;;;;;;12.07;8.17;;;;;;;4.73;81.88;96674.84;5059009;28;20427;-92
2021/03/17 08:54:53;;;;;;;11.97;8.47;;;;;;;4.63;84.47;96671.75;5057203;28;20427;-92
2021/03/17 08:57:21;;;;;;;11.90;7.33;;;;;;;4.66;83.01;96665.41;5048007;28;20465;-92
2021/03/17 09:00:00;;;;;;;11.87;8.20;;;;;;;4.73;83.42;96664.16;5047762;28;20459;-91
2021/03/17 09:03:05;;;;;;;11.50;7.90;;;;;;;4.87;81.86;96665.78;5043316;28;20441;-90
2021/03/17 09:05:32;;;;;;;16.20;8.60;;;;;;;4.93;81.10;96661.13;5044930;28;20517;-93
2021/03/17 09:08:05;;;;;;;12.70;7.90;;;;;;;4.72;81.51;96652.00;5046793;28;20499;-92
2021/03/17 09:10:45;;;;;;;15.70;8.37;;;;;;;4.84;81.80;96650.72;5044102;28;20447;-92
2021/03/17 09:13:13;;;;;;;11.13;7.83;;;;;;;5.01;79.45;96658.66;5043465;28;20502;-89
2021/03/17 09:15:44;;;;;;;8.13;5.83;;;;;;;5.15;77.92;96644.22;5048039;28;20474;-88
2021/03/17 09:18:11;;;;;;;9.50;5.90;;;;;;;5.35;76.98;96655.28;5054913;28;20441;-87
2021/03/17 09:20:43;;;;;;;11.27;7.40;;;;;;;5.83;76.96;96635.16;5054944;28;20394;-87
2021/03/17 09:23:14;;;;;;;12.43;5.47;;;;;;;6.03;74.54;96634.78;5048885;28;20509;-86
2021/03/17 09:25:49;;;;;;;9.00;5.07;;;;;;;6.07;70.06;96648.63;5051349;28;20481;-88
2021/03/17 09:28:22;;;;;;;5.00;3.53;;;;;;;5.81;69.11;96640.31;5048194;28;20496;-89
2021/03/17 09:30:52;;;;;;;5.23;3.83;;;;;;;5.67;70.04;96650.16;5045480;28;20426;-88
2021/03/17 09:33:24;;;;;;;7.07;4.43;;;;;;;5.50;69.77;96646.91;5044381;28;20482;-92
2021/03/17 09:36:07;;;;;;;6.57;3.67;;;;;;;5.57;70.22;96651.00;5042694;28;20463;-90
2021/03/17 09:38:39;;;;;;;6.83;4.00;;;;;;;5.65;68.74;96649.22;5044365;28;20926;-91
2021/03/17 09:41:37;;;;;;;4.70;3.90;;;;;;;5.64;68.80;96653.13;5046830;28;20435;-90
2021/03/17 09:44:07;;;;;;;4.70;3.80;;;;;;;5.49;68.62;96650.78;5043201;28;20764;-89
2021/03/17 09:46:35;;;;;;;9.73;4.70;;;;;;;5.79;69.96;96651.53;5046156;28;20440;-92
2021/03/17 09:49:05;;;;;;;7.67;4.33;;;;;;;5.84;69.47;96650.75;5056924;28;20414;-95
2021/03/17 09:51:34;;;;;;;7.60;5.00;;;;;;;5.76;71.54;96647.16;5051061;28;20430;-89
2021/03/17 09:54:04;;;;;;;7.97;5.90;;;;;;;5.85;69.33;96646.88;5044043;28;20431;-89
2021/03/17 09:56:39;;;;;;;6.50;4.50;;;;;;;5.75;71.28;96651.06;5042805;28;20499;-89
2021/03/17 09:59:20;;;;;;;6.27;4.33;;;;;;;5.79;70.90;96643.50;5044189;28;20422;-89
2021/03/17 10:01:54;;;;;;;5.47;3.93;;;;;;;5.95;70.89;96647.28;5043886;28;20412;-89
2021/03/17 10:04:22;;;;;;;5.20;3.17;;;;;;;5.83;65.25;96640.53;5045462;28;20977;-89
2021/03/17 10:06:49;;;;;;;4.23;3.40;;;;;;;5.60;67.19;96641.97;5041052;28;20438;-85
2021/03/17 10:09:15;;;;;;;4.03;2.97;;;;;;;5.65;68.09;96635.81;5057276;28;20449;-87
2021/03/17 10:11:42;;;;;;;4.73;3.30;;;;;;;6.03;66.73;96642.81;5057504;28;20428;-87
2021/03/17 10:14:13;;;;;;;7.60;3.03;;;;;;;6.19;66.55;96633.88;5058187;28;20437;-86
2021/03/17 10:16:40;;;;;;;6.17;4.10;;;;;;;6.38;65.37;96628.56;5052818;28;21046;-86
2021/03/17 10:19:06;;;;;;;8.17;4.20;;;;;;;6.68;66.10;96626.47;5041380;28;20485;-86
2021/03/17 10:21:32;;;;;;;18.43;5.70;;;;;;;6.65;65.94;96630.16;5040050;28;20478;-87
2021/03/17 10:23:59;;;;;;;4.80;3.93;;;;;;;6.75;66.14;96633.22;5039966;28;20430;-90
2021/03/17 10:26:27;;;;;;;4.60;3.90;;;;;;;6.29;64.63;96623.53;5041897;28;20468;-91
2021/03/17 10:28:54;;;;;;;7.07;3.47;;;;;;;6.00;66.65;96629.69;5041927;28;20423;-91
2021/03/17 10:31:22;;;;;;;5.90;3.73;;;;;;;5.95;66.39;96625.84;5041297;28;20848;-91
2021/03/17 10:33:49;;;;;;;7.30;4.47;;;;;;;5.99;67.50;96620.94;5043313;28;20452;-90
2021/03/17 10:36:17;;;;;;;6.77;4.90;;;;;;;5.85;67.68;96619.34;5040412;28;20843;-89
2021/03/17 10:38:53;;;;;;;6.77;3.80;;;;;;;6.04;66.37;96606.03;5041017;28;20462;-90
2021/03/17 10:41:43;;;;;;;6.30;4.40;;;;;;;6.13;66.71;96611.78;5040241;28;20413;-91
2021/03/17 10:44:15;;;;;;;9.70;4.53;;;;;;;6.14;67.76;96613.22;5039402;28;20455;-84
2021/03/17 10:47:05;;;;;;;7.63;3.60;;;;;;;6.33;68.18;96613.25;5041844;28;20461;-85
2021/03/17 10:49:34;;;;;;;5.70;4.13;;;;;;;6.27;67.19;96609.91;5043326;28;20443;-90
2021/03/17 10:52:04;;;;;;;10.00;4.10;;;;;;;6.15;66.40;96606.63;5044416;28;20503;-92
2021/03/17 10:54:32;;;;;;;6.97;3.90;;;;;;;6.37;67.41;96611.75;5046436;28;20481;-90
2021/03/17 10:56:58;;;;;;;7.00;3.37;;;;;;;6.54;65.32;96613.50;5044734;28;20518;-90
2021/03/17 10:59:30;;;;;;;5.53;3.27;;;;;;;6.23;65.90;96607.53;5045196;28;20801;-90
2021/03/17 11:02:31;;;;;;;6.53;3.77;;;;;;;6.52;65.83;96613.28;5045115;28;20497;-91
2021/03/17 11:05:12;;;;;;;5.10;3.20;;;;;;;6.51;65.95;96612.56;4988754;28;20416;-91
2021/03/17 11:15:25;;;;;;;8.13;5.30;;;;;;;5.44;73.19;96608.03;5025152;28;20491;-92
2021/03/17 11:17:59;;;;;;;7.33;4.80;;;;;;;5.37;74.73;96599.31;5025227;28;20452;-91
2021/03/17 11:20:27;;;;;;;8.53;4.93;;;;;;;5.46;74.23;96597.53;5028627;28;20789;-92
2021/03/17 11:22:56;;;;;;;9.80;5.33;;;;;;;5.40;75.53;96609.03;5031876;28;20498;-92
2021/03/17 11:25:26;;;;;;;9.40;5.60;;;;;;;5.32;76.14;96605.47;5030413;28;20471;-92
2021/03/17 11:27:59;;;;;;;9.33;5.10;;;;;;;5.11;78.51;96598.28;5031402;28;20452;-92
2021/03/17 11:30:40;;;;;;;12.30;5.30;;;;;;;4.83;79.54;96596.53;5027687;28;20419;-93
2021/03/17 11:33:09;;;;;;;8.17;5.47;;;;;;;4.76;79.62;96601.72;5025641;28;20432;-90
2021/03/17 11:35:38;;;;;;;12.97;5.57;;;;;;;4.83;80.14;96606.50;5026561;28;20491;-92
2021/03/17 11:38:47;;;;;;;;;;;;;;;;;;;;;
2021/03/17 11:41:13;;;;;;;12.40;6.50;;;;;;;4.86;81.74;96603.56;5025602;28;20482;-91
2021/03/17 11:43:40;;;;;;;10.27;4.63;;;;;;;4.82;82.09;96605.78;5026868;28;20520;-91
2021/03/17 11:46:08;;;;;;;8.27;5.13;;;;;;;4.81;81.87;96603.63;5026829;28;20495;-90
2021/03/17 11:48:34;;;;;;;9.53;5.70;;;;;;;4.77;82.35;96606.53;5025938;28;20997;-87
2021/03/17 11:51:03;;;;;;;9.53;5.20;;;;;;;4.61;81.93;96607.34;5023139;28;20455;-87
2021/03/17 11:53:31;;;;;;;8.90;5.13;;;;;;;4.59;82.49;96609.06;5025850;28;20448;-92
2021/03/17 11:55:58;;;;;;;8.70;5.47;;;;;;;4.55;83.37;96603.25;5028489;28;20480;-90
2021/03/17 11:58:25;;;;;;;9.83;6.10;;;;;;;4.50;84.99;96606.69;5028859;28;20730;-88
2021/03/17 12:00:51;;;;;;;9.63;6.10;;;;;;;4.43;86.42;96609.88;5021364;28;20487;-85